Time;durP1;ratioP1;P1;durP2;ratioP2;P2;SDS_P1;SDS_P2;PMS_P1;PMS_P2;Temp;Humidity;BMP_temperature;BMP_pressure;BME280_temperature;BME280_humidity;BME280_pressure;Samples;Min_cycle;Max_cycle;Signal;HPM_P1;HPM_P2
2023/09/13 00:00:23;;;;;;;20.98;11.45;;;;;;;17.98;100.00;101391.47;6070479;19;20014;-73
2023/09/13 00:02:28;;;;;;;21.60;10.82;;;;;;;18.06;100.00;101390.13;6074735;19;20576;-73
2023/09/13 00:04:37;;;;;;;21.98;10.60;;;;;;;18.11;100.00;101391.53;6074365;19;20006;-73
2023/09/13 00:06:42;;;;;;;20.67;12.02;;;;;;;18.07;100.00;101399.81;6077328;19;20438;-74
2023/09/13 00:08:47;;;;;;;23.15;11.30;;;;;;;18.06;100.00;101401.63;6074292;19;20039;-73
2023/09/13 00:10:53;;;;;;;20.15;11.57;;;;;;;18.09;100.00;101404.09;6074979;19;20006;-73
2023/09/13 00:13:03;;;;;;;23.60;11.23;;;;;;;18.13;100.00;101394.94;6073530;19;20264;-74
2023/09/13 00:15:09;;;;;;;19.13;10.20;;;;;;;18.17;100.00;101387.66;6071960;19;20006;-73
2023/09/13 00:17:14;;;;;;;20.88;10.90;;;;;;;18.18;100.00;101386.69;6069545;19;20182;-73
2023/09/13 00:19:20;;;;;;;21.02;10.60;;;;;;;18.15;100.00;101385.06;6069105;19;20204;-73
2023/09/13 00:21:25;;;;;;;23.20;11.38;;;;;;;18.23;100.00;101381.94;6071693;19;20027;-74
2023/09/13 00:23:30;;;;;;;18.13;9.52;;;;;;;18.25;100.00;101390.69;6068317;19;20006;-74
2023/09/13 00:25:33;;;;;;;20.13;10.20;;;;;;;18.33;100.00;101395.50;6068816;19;20051;-75
2023/09/13 00:27:38;;;;;;;24.13;12.55;;;;;;;18.34;100.00;101395.38;6070031;19;20486;-74
2023/09/13 00:29:45;;;;;;;24.50;11.40;;;;;;;18.31;100.00;101400.06;6076340;19;20006;-76
2023/09/13 00:31:51;;;;;;;28.60;12.60;;;;;;;18.28;100.00;101397.59;6069551;19;21167;-75
2023/09/13 00:33:58;;;;;;;24.50;11.73;;;;;;;18.19;100.00;101385.72;6075158;19;20505;-76
2023/09/13 00:36:03;;;;;;;26.90;12.40;;;;;;;18.17;100.00;101391.16;6069403;19;20095;-74
2023/09/13 00:38:09;;;;;;;23.95;12.38;;;;;;;18.19;100.00;101383.94;6071986;19;20285;-74
2023/09/13 00:40:14;;;;;;;20.80;10.93;;;;;;;18.23;100.00;101389.91;6068821;19;20098;-72
2023/09/13 00:42:20;;;;;;;20.38;10.07;;;;;;;18.24;100.00;101383.63;6064519;19;20006;-73
2023/09/13 00:44:24;;;;;;;18.83;10.40;;;;;;;18.26;100.00;101384.38;6066898;19;20271;-73
2023/09/13 00:46:32;;;;;;;20.02;10.63;;;;;;;18.24;100.00;101378.31;6071682;19;20320;-73
2023/09/13 00:48:37;;;;;;;18.15;10.15;;;;;;;18.24;100.00;101378.31;6072762;19;20435;-73
2023/09/13 00:50:44;;;;;;;18.23;10.02;;;;;;;18.22;100.00;101374.91;6071828;19;20035;-73
2023/09/13 00:52:58;;;;;;;19.48;10.73;;;;;;;18.20;100.00;101376.81;6069473;19;20011;-73
2023/09/13 00:55:04;;;;;;;19.23;9.88;;;;;;;18.17;100.00;101382.34;6070097;19;20327;-73
2023/09/13 00:57:09;;;;;;;20.15;10.10;;;;;;;18.12;100.00;101382.63;6071625;19;20015;-73
2023/09/13 00:59:18;;;;;;;20.38;10.23;;;;;;;18.11;100.00;101385.38;6066771;19;20324;-73
2023/09/13 01:01:21;;;;;;;23.60;11.25;;;;;;;17.97;100.00;101381.78;6068040;19;20357;-73
2023/09/13 01:03:30;;;;;;;25.05;12.60;;;;;;;17.90;100.00;101383.09;6071383;19;20356;-73
2023/09/13 01:05:37;;;;;;;22.50;11.52;;;;;;;17.86;100.00;101386.91;6066086;19;20836;-75
2023/09/13 01:07:45;;;;;;;27.25;12.18;;;;;;;17.87;100.00;101391.28;6063666;19;20019;-73
2023/09/13 01:09:48;;;;;;;23.63;11.90;;;;;;;17.88;100.00;101390.34;6062748;19;20046;-73
2023/09/13 01:11:54;;;;;;;24.40;12.57;;;;;;;17.84;100.00;101379.97;6061686;19;20457;-74
2023/09/13 01:13:59;;;;;;;22.80;11.25;;;;;;;17.83;100.00;101379.13;6066307;19;20097;-75
2023/09/13 01:16:14;;;;;;;20.15;10.93;;;;;;;17.79;100.00;101377.59;6069189;19;20078;-74
2023/09/13 01:18:25;;;;;;;20.00;11.20;;;;;;;17.77;100.00;101372.38;6072569;19;20104;-74
2023/09/13 01:20:50;;;;;;;22.13;11.73;;;;;;;17.77;100.00;101367.06;6068214;19;20020;-74
2023/09/13 01:23:08;;;;;;;22.90;11.30;;;;;;;17.76;100.00;101370.63;6071502;19;20248;-73
2023/09/13 01:25:32;;;;;;;23.50;10.40;;;;;;;17.73;100.00;101354.03;6070787;19;20023;-73
2023/09/13 01:27:53;;;;;;;21.73;10.32;;;;;;;17.68;100.00;101348.16;6073231;19;20010;-73
2023/09/13 01:30:00;;;;;;;24.43;12.03;;;;;;;17.66;100.00;101355.34;6067764;19;20017;-73
2023/09/13 01:32:06;;;;;;;22.80;10.88;;;;;;;17.66;100.00;101358.88;6064050;19;20252;-73
2023/09/13 01:34:12;;;;;;;19.50;11.23;;;;;;;17.64;100.00;101360.78;6071182;19;20014;-73
2023/09/13 01:36:17;;;;;;;18.52;9.65;;;;;;;17.63;100.00;101363.53;6065615;19;20006;-73
2023/09/13 01:38:19;;;;;;;20.15;10.43;;;;;;;17.57;100.00;101363.91;6071403;19;21738;-73
2023/09/13 01:40:28;;;;;;;22.45;10.95;;;;;;;17.53;100.00;101358.75;6068329;19;20006;-73
2023/09/13 01:42:39;;;;;;;22.70;12.27;;;;;;;17.50;100.00;101366.09;6070172;19;20003;-73
2023/09/13 01:44:48;;;;;;;22.90;11.45;;;;;;;17.49;100.00;101370.53;6065598;19;20002;-73
2023/09/13 01:46:58;;;;;;;26.17;12.18;;;;;;;17.45;100.00;101363.69;6066825;19;20081;-73
2023/09/13 01:49:05;;;;;;;23.50;11.48;;;;;;;17.44;100.00;101367.31;6063518;19;20006;-73
2023/09/13 01:51:11;;;;;;;21.73;10.63;;;;;;;17.42;100.00;101371.84;6072096;19;20014;-73
2023/09/13 01:53:15;;;;;;;21.80;10.63;;;;;;;17.40;100.00;101375.56;6068452;19;20038;-73
2023/09/13 01:55:20;;;;;;;23.45;11.10;;;;;;;17.38;100.00;101367.69;6073980;19;20445;-73
2023/09/13 01:57:27;;;;;;;19.45;10.65;;;;;;;17.39;100.00;101374.72;6068263;19;20563;-73
2023/09/13 01:59:35;;;;;;;16.55;9.15;;;;;;;17.33;100.00;101367.13;6068327;19;20376;-74
2023/09/13 02:01:42;;;;;;;22.05;10.40;;;;;;;17.34;100.00;101374.13;6069479;19;20604;-72
2023/09/13 02:03:50;;;;;;;21.92;9.98;;;;;;;17.31;100.00;101379.63;6070388;19;20267;-74
2023/09/13 02:05:55;;;;;;;21.92;10.52;;;;;;;17.31;100.00;101376.97;6065986;19;20010;-73
2023/09/13 02:07:59;;;;;;;24.00;11.77;;;;;;;17.26;100.00;101377.25;6071445;19;20363;-73
2023/09/13 02:10:04;;;;;;;23.73;11.82;;;;;;;17.24;100.00;101379.13;6078124;19;21505;-74
2023/09/13 02:12:12;;;;;;;21.77;12.20;;;;;;;17.24;100.00;101373.81;6074204;19;20039;-74
2023/09/13 02:14:17;;;;;;;23.30;11.07;;;;;;;17.21;100.00;101381.97;6071217;19;20014;-75
2023/09/13 02:16:22;;;;;;;21.08;9.70;;;;;;;17.18;100.00;101378.66;6077640;19;20273;-74
2023/09/13 02:18:25;;;;;;;21.40;11.65;;;;;;;17.13;100.00;101375.41;6075440;19;20011;-75
2023/09/13 02:20:33;;;;;;;22.88;10.77;;;;;;;17.12;100.00;101387.84;6074582;19;20417;-74
2023/09/13 02:22:38;;;;;;;24.40;12.90;;;;;;;17.09;100.00;101386.22;6072510;19;20311;-75
2023/09/13 02:24:40;;;;;;;27.67;12.43;;;;;;;17.11;100.00;101389.66;6074395;19;20019;-73
2023/09/13 02:26:48;;;;;;;21.33;11.45;;;;;;;17.08;100.00;101383.66;6065683;19;20205;-74
2023/09/13 02:28:56;;;;;;;24.88;10.95;;;;;;;17.10;100.00;101393.25;6076514;19;20011;-73
2023/09/13 02:31:01;;;;;;;25.65;12.00;;;;;;;17.09;100.00;101393.34;6076267;19;20266;-72
2023/09/13 02:33:07;;;;;;;24.15;13.30;;;;;;;17.08;100.00;101389.81;6066992;19;20319;-74
2023/09/13 02:35:14;;;;;;;28.75;12.82;;;;;;;17.09;100.00;101385.38;6063004;19;20014;-74
2023/09/13 02:37:21;;;;;;;30.17;13.68;;;;;;;17.09;100.00;101393.34;6072321;19;20380;-74
2023/09/13 02:39:32;;;;;;;26.85;13.23;;;;;;;17.08;100.00;101392.47;6068312;19;20078;-75
2023/09/13 02:41:37;;;;;;;28.40;13.88;;;;;;;17.07;100.00;101397.88;6064695;19;20010;-74
2023/09/13 02:43:44;;;;;;;26.88;14.13;;;;;;;17.04;100.00;101398.06;6074244;19;21089;-72
2023/09/13 02:45:50;;;;;;;31.13;14.23;;;;;;;17.05;100.00;101405.94;6075599;19;20011;-75
2023/09/13 02:47:55;;;;;;;31.65;14.95;;;;;;;17.01;100.00;101404.41;6070111;19;20018;-73
2023/09/13 02:50:00;;;;;;;33.40;15.38;;;;;;;17.01;100.00;101398.22;6070560;19;20704;-73
2023/09/13 02:52:05;;;;;;;29.30;13.98;;;;;;;17.01;100.00;101403.53;6072949;19;20115;-74
2023/09/13 02:54:13;;;;;;;26.67;14.43;;;;;;;16.95;100.00;101396.78;6071306;19;20195;-74
2023/09/13 02:56:18;;;;;;;32.58;15.13;;;;;;;16.97;100.00;101397.56;6078130;19;20031;-74
2023/09/13 02:58:23;;;;;;;30.77;14.68;;;;;;;16.95;100.00;101401.25;6073273;19;20006;-73
2023/09/13 03:00:29;;;;;;;32.22;15.80;;;;;;;17.00;100.00;101391.22;6067749;19;20018;-73
2023/09/13 03:02:34;;;;;;;37.88;15.68;;;;;;;16.99;100.00;101393.03;6072560;19;20782;-74
2023/09/13 03:04:40;;;;;;;38.50;18.13;;;;;;;17.00;100.00;101402.69;6086251;19;20029;-75
2023/09/13 03:06:48;;;;;;;38.20;17.77;;;;;;;16.98;100.00;101393.97;6085540;19;19998;-75
2023/09/13 03:08:50;;;;;;;37.47;17.13;;;;;;;17.01;100.00;101399.09;6072678;19;20439;-75
2023/09/13 03:10:58;;;;;;;41.10;20.08;;;;;;;16.97;100.00;101396.72;6065794;19;20364;-75
2023/09/13 03:13:03;;;;;;;43.05;18.70;;;;;;;16.94;100.00;101397.75;6069178;19;20267;-74
2023/09/13 03:15:09;;;;;;;38.50;19.45;;;;;;;16.95;100.00;101396.78;6069091;19;20011;-74
2023/09/13 03:17:14;;;;;;;39.60;18.63;;;;;;;16.99;100.00;101400.13;6072521;19;20012;-74
2023/09/13 03:19:19;;;;;;;40.88;19.35;;;;;;;16.94;100.00;101402.22;6069944;19;20417;-74
2023/09/13 03:21:22;;;;;;;39.20;18.48;;;;;;;16.93;100.00;101398.69;6063976;19;20538;-74
2023/09/13 03:23:27;;;;;;;38.20;18.23;;;;;;;16.87;100.00;101404.34;6069538;19;20182;-73
2023/09/13 03:25:35;;;;;;;41.50;18.40;;;;;;;16.89;100.00;101405.13;6069522;19;20783;-73
2023/09/13 03:27:43;;;;;;;42.47;18.70;;;;;;;16.86;100.00;101406.16;6069644;19;20015;-73
2023/09/13 03:29:48;;;;;;;43.35;17.42;;;;;;;16.87;100.00;101405.19;6071726;19;20018;-74
2023/09/13 03:31:54;;;;;;;35.80;17.25;;;;;;;16.85;100.00;101403.56;6069758;19;20015;-74
2023/09/13 03:34:00;;;;;;;42.35;19.75;;;;;;;16.83;100.00;101411.66;6069939;19;20007;-74
2023/09/13 03:36:03;;;;;;;39.58;18.13;;;;;;;16.82;100.00;101403.75;6072435;19;20031;-73
2023/09/13 03:38:08;;;;;;;42.50;18.80;;;;;;;16.81;100.00;101405.56;6070965;19;20554;-75
2023/09/13 03:40:14;;;;;;;43.05;21.15;;;;;;;16.85;100.00;101398.25;6073987;19;20023;-74
2023/09/13 03:42:19;;;;;;;48.45;20.02;;;;;;;16.83;100.00;101408.13;6076999;19;20036;-72
2023/09/13 03:44:27;;;;;;;49.92;21.58;;;;;;;16.80;100.00;101410.97;6076485;19;20288;-73
2023/09/13 03:46:30;;;;;;;49.85;21.50;;;;;;;16.76;100.00;101404.09;6078615;19;20647;-74
2023/09/13 03:48:36;;;;;;;47.90;20.80;;;;;;;16.77;100.00;101417.31;6075530;19;20031;-73
2023/09/13 03:50:41;;;;;;;38.53;19.85;;;;;;;16.74;100.00;101416.59;6075347;19;20034;-73
2023/09/13 03:52:46;;;;;;;43.10;21.58;;;;;;;16.72;100.00;101422.00;6077133;19;20003;-72
2023/09/13 03:54:51;;;;;;;49.42;21.92;;;;;;;16.70;100.00;101423.88;6074666;19;20126;-72
2023/09/13 03:56:59;;;;;;;42.72;20.13;;;;;;;16.67;100.00;101419.59;6064840;19;20020;-73
2023/09/13 03:59:04;;;;;;;43.47;22.10;;;;;;;16.66;100.00;101415.22;6071770;19;20014;-74
2023/09/13 04:01:12;;;;;;;42.85;20.38;;;;;;;16.63;100.00;101417.19;6074456;19;20073;-74
2023/09/13 04:03:18;;;;;;;52.78;20.95;;;;;;;16.63;100.00;101414.53;6066908;19;20278;-75
2023/09/13 04:05:26;;;;;;;53.17;23.23;;;;;;;16.65;100.00;101418.81;6067914;19;20319;-74
2023/09/13 04:07:31;;;;;;;49.53;24.13;;;;;;;16.68;100.00;101418.66;6068734;19;20115;-74
2023/09/13 04:09:36;;;;;;;49.83;23.73;;;;;;;16.69;100.00;101416.84;6068691;19;20003;-75
2023/09/13 04:11:41;;;;;;;49.50;23.25;;;;;;;16.70;100.00;101415.06;6072536;19;20539;-74
2023/09/13 04:13:43;;;;;;;49.92;21.38;;;;;;;16.71;100.00;101417.63;6072001;19;20940;-74
2023/09/13 04:15:49;;;;;;;48.60;23.42;;;;;;;16.71;100.00;101419.41;6071367;19;20017;-75
2023/09/13 04:18:08;;;;;;;50.45;24.55;;;;;;;16.74;100.00;101408.63;6069525;19;20165;-73
2023/09/13 04:20:13;;;;;;;52.22;22.70;;;;;;;16.76;100.00;101410.25;6068636;19;20019;-73
2023/09/13 04:22:18;;;;;;;48.63;21.83;;;;;;;16.82;100.00;101417.88;6070487;19;20011;-73
2023/09/13 04:24:26;;;;;;;44.05;20.27;;;;;;;16.85;100.00;101419.50;6073793;19;20118;-75
2023/09/13 04:26:30;;;;;;;46.03;20.52;;;;;;;16.87;100.00;101414.97;6073986;19;20034;-73
2023/09/13 04:28:33;;;;;;;47.10;20.17;;;;;;;16.89;100.00;101418.41;6071056;19;20446;-74
2023/09/13 04:30:39;;;;;;;45.75;20.33;;;;;;;16.93;100.00;101416.41;6069721;19;20340;-73
2023/09/13 04:32:47;;;;;;;46.70;20.60;;;;;;;16.90;100.00;101412.13;6070714;19;20519;-74
2023/09/13 04:34:55;;;;;;;43.63;17.90;;;;;;;16.91;100.00;101413.84;6071848;19;20059;-73
2023/09/13 04:37:00;;;;;;;46.83;19.95;;;;;;;16.89;100.00;101419.25;6067902;19;20010;-75
2023/09/13 04:39:05;;;;;;;45.97;21.88;;;;;;;16.87;100.00;101409.66;6072368;19;20103;-73
2023/09/13 04:41:14;;;;;;;44.90;20.60;;;;;;;16.88;100.00;101419.34;6066814;19;20239;-73
2023/09/13 04:43:24;;;;;;;49.35;23.17;;;;;;;16.84;100.00;101417.81;6066794;19;20626;-73
2023/09/13 04:45:29;;;;;;;48.38;21.48;;;;;;;16.83;100.00;101427.56;6067111;19;20007;-73
2023/09/13 04:47:37;;;;;;;42.90;21.00;;;;;;;16.83;100.00;101446.16;6072285;19;20010;-75
2023/09/13 04:49:42;;;;;;;40.80;19.60;;;;;;;16.99;100.00;101447.94;6074166;19;20397;-75
2023/09/13 04:51:50;;;;;;;31.08;13.02;;;;;;;17.00;100.00;101450.47;6068738;19;20655;-75
2023/09/13 04:53:57;;;;;;;22.98;7.05;;;;;;;16.88;100.00;101449.41;6070406;19;20002;-74
2023/09/13 04:56:03;;;;;;;15.63;4.55;;;;;;;16.84;100.00;101450.50;6069954;19;20324;-73
2023/09/13 04:58:08;;;;;;;15.10;5.07;;;;;;;16.75;100.00;101452.81;6067559;19;20559;-75
2023/09/13 05:00:16;;;;;;;13.98;3.50;;;;;;;16.69;100.00;101467.25;6067932;19;20840;-74
2023/09/13 05:02:21;;;;;;;13.30;4.25;;;;;;;16.63;100.00;101467.63;6069648;19;20078;-74
2023/09/13 05:04:28;;;;;;;14.10;3.60;;;;;;;16.55;100.00;101475.16;6069027;19;20010;-75
2023/09/13 05:06:36;;;;;;;15.18;3.47;;;;;;;16.52;100.00;101477.97;6071068;19;20219;-74
2023/09/13 05:08:47;;;;;;;7.45;2.22;;;;;;;16.42;100.00;101482.91;6073194;19;20039;-74
2023/09/13 05:10:54;;;;;;;9.52;2.00;;;;;;;16.26;100.00;101484.69;6067207;19;20003;-74
2023/09/13 05:13:00;;;;;;;14.75;2.58;;;;;;;16.22;100.00;101490.19;6076958;19;20621;-74
2023/09/13 05:15:05;;;;;;;9.13;2.13;;;;;;;16.12;100.00;101488.94;6069296;19;20085;-73
2023/09/13 05:17:13;;;;;;;6.57;2.88;;;;;;;16.14;100.00;101496.81;6071256;19;20843;-73
2023/09/13 05:19:18;;;;;;;10.93;2.10;;;;;;;16.16;100.00;101495.78;6071442;19;19999;-73
2023/09/13 05:21:23;;;;;;;11.23;2.35;;;;;;;16.20;100.00;101501.81;6069710;19;20039;-72
2023/09/13 05:23:28;;;;;;;11.55;4.40;;;;;;;16.05;100.00;101507.91;6075976;19;21097;-73
2023/09/13 05:25:36;;;;;;;5.35;2.03;;;;;;;16.10;100.00;101516.50;6074136;19;20720;-73
2023/09/13 05:27:41;;;;;;;8.77;2.10;;;;;;;16.09;100.00;101520.06;6072759;19;20053;-73
2023/09/13 05:29:47;;;;;;;8.57;2.03;;;;;;;16.09;100.00;101526.25;6071907;19;20767;-73
2023/09/13 05:31:53;;;;;;;6.90;1.85;;;;;;;16.06;100.00;101530.81;6070333;19;20904;-75
2023/09/13 05:34:02;;;;;;;9.50;2.55;;;;;;;16.00;100.00;101529.34;6073793;19;20154;-75
2023/09/13 05:36:10;;;;;;;3.83;1.58;;;;;;;15.72;100.00;101532.59;6070642;19;20014;-74
2023/09/13 05:38:15;;;;;;;3.72;1.13;;;;;;;15.58;100.00;101543.84;6071750;19;20539;-75
2023/09/13 05:40:21;;;;;;;5.70;1.75;;;;;;;15.40;100.00;101532.38;6072573;19;20137;-74
2023/09/13 05:42:28;;;;;;;1.67;1.15;;;;;;;15.37;100.00;101541.31;6070421;19;20531;-74
2023/09/13 05:44:34;;;;;;;3.65;1.25;;;;;;;15.32;100.00;101551.31;6057499;19;20409;-73
2023/09/13 05:46:39;;;;;;;3.45;1.40;;;;;;;15.27;100.00;101553.31;6070317;19;20090;-73
2023/09/13 05:48:45;;;;;;;2.28;1.23;;;;;;;15.26;100.00;101553.38;6074090;19;20035;-74
2023/09/13 05:50:50;;;;;;;4.38;1.20;;;;;;;15.20;100.00;101559.00;6070417;19;20511;-74
2023/09/13 05:52:58;;;;;;;4.18;1.75;;;;;;;15.24;100.00;101577.28;6068189;19;20333;-73
2023/09/13 05:55:01;;;;;;;6.88;1.70;;;;;;;15.21;100.00;101574.78;6071554;19;20017;-73
2023/09/13 05:57:06;;;;;;;;;;;;;;;15.24;100.00;101584.38;6077915;19;20338;-73
2023/09/13 05:59:13;;;;;;;3.60;1.92;;;;;;;15.22;100.00;101586.22;6074787;19;19914;-74
2023/09/13 06:01:18;;;;;;;3.97;1.67;;;;;;;15.05;100.00;101592.34;6071418;19;20003;-73
2023/09/13 06:03:23;;;;;;;5.20;1.85;;;;;;;15.11;100.00;101595.56;6072980;19;20014;-74
2023/09/13 06:05:28;;;;;;;4.43;1.58;;;;;;;15.16;100.00;101597.97;6071711;19;20003;-74
2023/09/13 06:07:36;;;;;;;8.80;2.10;;;;;;;15.03;100.00;101607.41;6065444;19;20023;-73
2023/09/13 06:09:41;;;;;;;7.05;1.92;;;;;;;14.95;100.00;101604.28;6072615;19;20812;-74
2023/09/13 06:11:46;;;;;;;3.50;1.45;;;;;;;15.02;100.00;101616.31;6069513;19;20023;-72
2023/09/13 06:13:51;;;;;;;3.10;1.30;;;;;;;15.03;100.00;101621.50;6076236;19;20389;-73
2023/09/13 06:15:59;;;;;;;4.32;1.55;;;;;;;15.11;100.00;101618.50;6071347;19;20444;-73
2023/09/13 06:18:04;;;;;;;4.10;2.28;;;;;;;15.06;100.00;101623.16;6080867;19;20011;-73
2023/09/13 06:20:10;;;;;;;4.63;1.65;;;;;;;15.10;100.00;101632.69;6077238;19;20296;-73
2023/09/13 06:22:17;;;;;;;7.15;1.90;;;;;;;15.14;100.00;101629.81;6073480;19;20011;-73
2023/09/13 06:24:22;;;;;;;4.63;1.90;;;;;;;15.10;100.00;101643.28;6074598;19;20010;-73
2023/09/13 06:26:27;;;;;;;5.10;2.45;;;;;;;15.16;100.00;101656.22;6070845;19;20350;-73
2023/09/13 06:28:34;;;;;;;3.95;1.75;;;;;;;15.20;100.00;101655.16;6071429;19;20074;-73
2023/09/13 06:30:39;;;;;;;5.47;2.03;;;;;;;15.24;100.00;101667.31;6070467;19;20261;-73
2023/09/13 06:33:08;;;;;;;3.67;1.67;;;;;;;15.27;100.00;101659.25;6067576;19;20188;-74
2023/09/13 06:35:17;;;;;;;3.60;1.48;;;;;;;15.25;100.00;101658.44;6074181;19;20011;-74
2023/09/13 06:37:22;;;;;;;4.47;1.65;;;;;;;15.29;100.00;101667.94;6065919;19;20069;-72
2023/09/13 06:39:31;;;;;;;7.63;2.00;;;;;;;15.36;100.00;101665.88;6068197;19;20051;-72
2023/09/13 06:41:36;;;;;;;5.22;1.80;;;;;;;15.36;100.00;101666.72;6067712;19;20103;-74
2023/09/13 06:43:44;;;;;;;5.40;1.60;;;;;;;15.42;100.00;101668.22;6071873;19;20410;-73
2023/09/13 06:46:09;;;;;;;6.97;2.28;;;;;;;15.57;100.00;101671.94;6075757;19;20044;-73
2023/09/13 06:48:19;;;;;;;5.10;2.17;;;;;;;15.62;100.00;101672.59;6076465;19;20496;-73
2023/09/13 06:50:25;;;;;;;5.32;1.63;;;;;;;15.67;100.00;101672.38;6075347;19;20457;-72
2023/09/13 06:52:51;;;;;;;6.38;1.92;;;;;;;15.82;100.00;101681.38;6074656;19;20454;-73
2023/09/13 06:55:16;;;;;;;4.90;1.88;;;;;;;15.99;100.00;101684.91;6076471;19;20316;-72
2023/09/13 06:57:22;;;;;;;2.80;1.63;;;;;;;16.08;100.00;101694.19;6071923;19;20013;-72
2023/09/13 06:59:34;;;;;;;5.28;1.85;;;;;;;16.28;100.00;101693.19;6053881;19;20003;-75
2023/09/13 07:02:04;;;;;;;6.30;2.00;;;;;;;16.30;100.00;101694.00;6034369;19;20055;-73
2023/09/13 07:04:33;;;;;;;4.70;1.80;;;;;;;16.59;100.00;101705.75;6072896;19;20020;-73
2023/09/13 07:06:45;;;;;;;4.30;1.60;;;;;;;16.61;100.00;101709.19;6073946;19;20094;-74
2023/09/13 07:08:51;;;;;;;5.63;1.90;;;;;;;16.68;99.17;101715.88;6075480;19;20015;-74
2023/09/13 07:11:02;;;;;;;3.15;1.40;;;;;;;16.77;98.26;101711.94;6069815;19;20629;-75
2023/09/13 07:13:07;;;;;;;3.80;1.58;;;;;;;17.05;98.09;101721.94;6069512;19;21414;-75
2023/09/13 07:15:10;;;;;;;3.95;1.45;;;;;;;17.32;97.17;101726.69;6072644;19;20597;-73
2023/09/13 07:17:18;;;;;;;3.88;1.63;;;;;;;17.49;95.64;101723.97;6073707;19;20443;-74
2023/09/13 07:19:23;;;;;;;2.97;1.20;;;;;;;17.68;93.78;101721.13;6071730;19;20504;-73
2023/09/13 07:21:31;;;;;;;2.58;1.40;;;;;;;17.44;95.86;101726.03;6075570;19;20536;-73
2023/09/13 07:23:37;;;;;;;3.55;1.60;;;;;;;17.23;94.34;101729.84;6076052;19;20531;-72
2023/09/13 07:25:42;;;;;;;3.10;1.30;;;;;;;17.17;96.00;101736.38;6074332;19;20038;-74
2023/09/13 07:27:47;;;;;;;3.80;1.13;;;;;;;17.07;94.67;101738.66;6071624;19;20569;-74
2023/09/13 07:29:52;;;;;;;4.30;1.98;;;;;;;16.89;96.20;101734.31;6075353;19;20221;-74
2023/09/13 07:31:58;;;;;;;2.88;1.48;;;;;;;16.86;94.68;101734.47;6079641;19;20221;-73
2023/09/13 07:34:03;;;;;;;4.00;1.58;;;;;;;16.92;94.88;101735.94;6076659;19;20106;-74
2023/09/13 07:36:08;;;;;;;1.85;1.10;;;;;;;16.91;94.01;101732.44;6078957;19;20156;-74
2023/09/13 07:38:15;;;;;;;4.07;1.60;;;;;;;17.03;95.08;101728.25;6080152;19;20205;-77
2023/09/13 07:40:20;;;;;;;2.83;1.40;;;;;;;16.97;93.29;101739.22;6079188;19;20027;-74
2023/09/13 07:42:26;;;;;;;2.20;1.38;;;;;;;16.99;93.53;101740.00;6081222;19;20015;-75
2023/09/13 07:44:30;;;;;;;3.40;1.27;;;;;;;17.08;94.02;101743.00;6077428;19;20054;-75
2023/09/13 07:46:35;;;;;;;2.97;1.40;;;;;;;17.31;93.88;101757.72;6079789;19;20121;-75
2023/09/13 07:48:41;;;;;;;3.10;1.38;;;;;;;17.45;92.70;101762.28;6081990;19;20543;-73
2023/09/13 07:50:48;;;;;;;4.03;1.90;;;;;;;17.50;91.61;101762.03;6080833;19;20589;-73
2023/09/13 07:52:53;;;;;;;2.47;1.20;;;;;;;17.52;92.04;101770.78;6077898;19;20007;-74
2023/09/13 07:55:07;;;;;;;2.50;1.20;;;;;;;17.56;91.42;101772.31;6081250;19;20064;-73
2023/09/13 07:57:12;;;;;;;2.10;1.05;;;;;;;17.77;89.23;101776.47;6078680;19;20110;-73
2023/09/13 07:59:18;;;;;;;5.20;1.48;;;;;;;17.88;89.95;101786.53;6080397;19;20010;-72
2023/09/13 08:01:26;;;;;;;4.15;1.55;;;;;;;18.13;88.00;101790.44;6076602;19;20371;-73
2023/09/13 08:03:31;;;;;;;3.13;1.33;;;;;;;18.53;86.32;101791.63;6076872;19;20264;-74
2023/09/13 08:05:36;;;;;;;4.28;1.33;;;;;;;18.57;84.95;101795.00;6079577;19;20010;-75
2023/09/13 08:07:39;;;;;;;2.90;1.10;;;;;;;18.30;84.27;101805.44;6086101;19;20406;-73
2023/09/13 08:09:49;;;;;;;3.15;1.23;;;;;;;18.31;83.95;101802.69;6083050;19;20328;-74
2023/09/13 08:12:01;;;;;;;2.50;1.48;;;;;;;18.56;84.67;101803.91;6081959;19;20523;-73
2023/09/13 08:14:06;;;;;;;3.05;0.98;;;;;;;18.97;82.55;101798.81;6083457;19;20029;-73
2023/09/13 08:16:11;;;;;;;1.85;0.90;;;;;;;19.72;78.43;101804.84;6082191;19;20698;-72
2023/09/13 08:18:16;;;;;;;2.55;0.90;;;;;;;19.73;76.82;101805.72;6084076;19;20039;-74
2023/09/13 08:20:22;;;;;;;3.80;1.48;;;;;;;20.21;76.18;101805.31;6083579;19;20058;-75
2023/09/13 08:22:27;;;;;;;2.25;1.13;;;;;;;19.66;76.74;101812.34;6087001;19;20173;-74
2023/09/13 08:24:47;;;;;;;2.15;1.25;;;;;;;19.87;75.76;101812.81;6083476;19;20215;-73
2023/09/13 08:26:52;;;;;;;2.13;1.15;;;;;;;19.64;76.70;101817.78;6083584;19;20560;-72
2023/09/13 08:29:04;;;;;;;2.60;1.27;;;;;;;19.57;76.56;101824.47;6084187;19;20018;-72
2023/09/13 08:31:10;;;;;;;1.05;0.80;;;;;;;19.60;77.83;101837.59;6082633;19;20014;-74
2023/09/13 08:33:16;;;;;;;1.65;0.77;;;;;;;19.27;78.59;101836.09;6080709;19;20082;-73
2023/09/13 08:35:21;;;;;;;2.10;1.25;;;;;;;19.54;78.27;101838.00;6079509;19;20829;-73
2023/09/13 08:37:27;;;;;;;2.90;1.25;;;;;;;19.85;76.81;101846.72;6077311;19;20016;-73
2023/09/13 08:39:35;;;;;;;2.83;1.30;;;;;;;20.15;76.63;101847.44;6083460;19;20140;-74
2023/09/13 08:41:43;;;;;;;3.95;1.60;;;;;;;19.89;74.59;101854.44;6082275;19;20013;-74
2023/09/13 08:43:50;;;;;;;1.98;1.48;;;;;;;19.95;75.51;101863.88;6083813;19;20039;-73
2023/09/13 08:46:04;;;;;;;2.72;1.15;;;;;;;20.03;74.85;101866.06;6083286;19;20014;-74
2023/09/13 08:48:10;;;;;;;5.18;1.60;;;;;;;20.31;75.29;101865.13;6082204;19;20208;-73
2023/09/13 08:50:23;;;;;;;2.65;1.10;;;;;;;19.67;74.72;101881.63;6080722;19;20038;-72
2023/09/13 08:52:29;;;;;;;3.42;1.25;;;;;;;19.79;75.70;101888.00;6080030;19;20014;-73
2023/09/13 08:54:35;;;;;;;2.00;1.55;;;;;;;19.55;75.73;101897.50;6076125;19;20484;-73
2023/09/13 08:57:02;;;;;;;3.97;1.42;;;;;;;19.83;76.45;101888.69;6077150;19;20420;-71
2023/09/13 08:59:09;;;;;;;3.72;1.60;;;;;;;19.73;77.17;101902.56;6077987;19;20039;-72
2023/09/13 09:01:22;;;;;;;2.47;1.20;;;;;;;19.99;75.97;101901.91;6076871;19;20012;-70
2023/09/13 09:03:27;;;;;;;3.50;1.52;;;;;;;19.95;74.93;101901.22;6079313;19;20768;-72
2023/09/13 09:05:35;;;;;;;3.65;1.60;;;;;;;19.76;76.39;101914.00;6078551;19;20011;-72
2023/09/13 09:07:41;;;;;;;4.43;1.85;;;;;;;19.90;76.10;101908.66;6070743;19;20035;-71
2023/09/13 09:09:50;;;;;;;4.03;1.67;;;;;;;19.80;77.17;101911.06;6077975;19;20306;-71
2023/09/13 09:11:59;;;;;;;4.03;2.13;;;;;;;19.94;75.63;101910.19;6073475;19;20399;-70
2023/09/13 09:14:08;;;;;;;2.67;1.55;;;;;;;20.23;74.42;101918.16;6077266;19;20003;-72
2023/09/13 09:16:20;;;;;;;3.70;1.63;;;;;;;20.21;75.20;101907.56;6074429;19;20010;-72
2023/09/13 09:18:30;;;;;;;2.88;1.63;;;;;;;20.25;75.31;101918.91;6079825;19;20344;-72
2023/09/13 09:20:36;;;;;;;6.40;1.70;;;;;;;20.31;73.69;101918.53;6076822;19;20109;-72
2023/09/13 09:22:41;;;;;;;5.00;1.67;;;;;;;20.17;73.93;101922.09;6077460;19;20017;-71
2023/09/13 09:24:48;;;;;;;4.93;1.95;;;;;;;20.24;73.04;101922.53;6078850;19;20084;-71
2023/09/13 09:26:59;;;;;;;3.35;1.67;;;;;;;20.26;74.24;101920.63;6078500;19;20015;-73
2023/09/13 09:29:22;;;;;;;3.42;1.75;;;;;;;20.77;72.08;101918.19;6077287;19;20010;-74
2023/09/13 09:31:35;;;;;;;2.53;1.65;;;;;;;20.92;71.12;101917.19;6054454;19;20014;-72
2023/09/13 09:33:42;;;;;;;4.38;2.10;;;;;;;20.85;70.42;101923.03;6066161;19;20035;-72
2023/09/13 09:36:05;;;;;;;5.05;2.00;;;;;;;21.24;69.23;101924.84;6073176;19;20535;-73
2023/09/13 09:38:29;;;;;;;5.35;2.03;;;;;;;20.48;70.73;101926.28;6032710;19;20014;-71
2023/09/13 09:40:57;;;;;;;4.53;1.73;;;;;;;20.43;71.26;101941.75;6077939;19;20102;-73